Terminal Aerodrome Forecast
Issued by NWS Missoula, MT

Home | Current Version | Previous Version | Text Only | Print | Product List | Glossary On
Versions: 1 2 3 4 5 6 7 8 9 10 11 12 13 14
000
FTUS45 KMSO 072208 AAA
TAFBTM
TAF AMD
KBTM 072208Z 0722/0818 34011G18KT P6SM -SHRA VCTS SCT060 OVC080CB
     FM080400 05010KT P6SM FEW050
     FM081200 06005KT P6SM SCT010 BKN030=

USA.gov is the U.S. government's official web portal to all federal, state and local government web resources and services.